Time;durP1;ratioP1;P1;durP2;ratioP2;P2;SDS_P1;SDS_P2;PMS_P1;PMS_P2;Temp;Humidity;BMP_temperature;BMP_pressure;BME280_temperature;BME280_humidity;BME280_pressure;Samples;Min_cycle;Max_cycle;Signal;HPM_P1;HPM_P2
2021/12/11 00:01:05;;;;;;;19.73;11.80;;;;;;;7.09;100.00;100171.67;1362588;105;20441;-70
2021/12/11 00:03:37;;;;;;;20.93;12.10;;;;;;;7.08;100.00;100173.48;1373527;102;21172;-70
2021/12/11 00:06:18;;;;;;;22.60;13.17;;;;;;;7.09;100.00;100183.77;1405826;101;21729;-70
2021/12/11 00:08:46;;;;;;;18.87;10.53;;;;;;;7.10;100.00;100180.08;1364562;104;21128;-70
2021/12/11 00:11:24;;;;;;;20.60;11.70;;;;;;;7.11;100.00;100177.75;1365957;105;21245;-70
2021/12/11 00:13:56;;;;;;;22.43;12.43;;;;;;;7.11;100.00;100169.17;1349140;104;21582;-68
2021/12/11 00:16:25;;;;;;;19.05;11.55;;;;;;;7.10;100.00;100168.84;1323416;107;21370;-70
2021/12/11 00:18:54;;;;;;;20.23;11.43;;;;;;;7.12;100.00;100164.64;1324017;108;21279;-70
2021/12/11 00:21:23;;;;;;;20.30;11.63;;;;;;;7.13;100.00;100169.03;1324003;108;21721;-71
2021/12/11 00:23:58;;;;;;;18.90;10.80;;;;;;;7.13;100.00;100155.08;1332419;108;21806;-70
2021/12/11 00:26:35;;;;;;;20.00;11.30;;;;;;;7.14;100.00;100156.79;1324051;108;21209;-70
2021/12/11 00:29:03;;;;;;;18.67;11.43;;;;;;;7.13;100.00;100142.14;1323923;107;21737;-70
2021/12/11 00:31:30;;;;;;;21.63;12.00;;;;;;;7.15;100.00;100137.45;1323907;108;21281;-70
2021/12/11 00:33:57;;;;;;;21.07;12.30;;;;;;;7.14;100.00;100143.84;1323306;107;21214;-70
2021/12/11 00:36:31;;;;;;;21.00;13.33;;;;;;;7.12;100.00;100144.47;1306989;105;21261;-70
2021/12/11 00:38:56;;;;;;;19.13;11.77;;;;;;;7.12;100.00;100152.53;1309261;108;21224;-70
2021/12/11 00:41:24;;;;;;;20.40;12.00;;;;;;;7.09;100.00;100138.90;1307017;110;21208;-69
2021/12/11 00:43:51;;;;;;;19.80;11.93;;;;;;;7.08;100.00;100149.30;1307143;110;21158;-71
2021/12/11 00:46:26;;;;;;;20.57;12.10;;;;;;;7.06;100.00;100149.94;1303175;110;21508;-70
2021/12/11 00:49:17;;;;;;;19.00;10.77;;;;;;;7.04;100.00;100147.90;1320107;109;21172;-68
2021/12/11 00:51:57;;;;;;;20.13;11.40;;;;;;;7.03;100.00;100156.47;1336096;107;21142;-70
2021/12/11 00:54:23;;;;;;;18.47;11.07;;;;;;;7.02;100.00;100155.27;1347334;100;21176;-70
2021/12/11 00:56:50;;;;;;;19.77;11.70;;;;;;;7.01;100.00;100148.18;1440919;99;21609;-69
2021/12/11 00:59:20;;;;;;;20.40;11.07;;;;;;;6.99;100.00;100142.97;1441283;100;21202;-69
2021/12/11 01:01:54;;;;;;;18.27;10.67;;;;;;;6.98;100.00;100140.42;1440949;100;21134;-71
2021/12/11 01:04:30;;;;;;;18.27;10.83;;;;;;;6.98;100.00;100141.77;1453910;91;21166;-70
2021/12/11 01:07:04;;;;;;;19.47;11.87;;;;;;;6.98;100.00;100135.05;1577195;90;21072;-69
2021/12/11 01:09:41;;;;;;;18.60;11.10;;;;;;;6.95;100.00;100136.17;1531360;94;21092;-69
2021/12/11 01:12:37;;;;;;;20.27;11.60;;;;;;;6.94;100.00;100132.28;1530032;94;21089;-71
2021/12/11 01:15:21;;;;;;;19.70;11.80;;;;;;;6.92;100.00;100132.92;1490437;96;21156;-71
2021/12/11 01:18:13;;;;;;;17.57;10.27;;;;;;;6.87;100.00;100129.35;1493717;94;21107;-70
2021/12/11 01:20:36;;;;;;;18.90;10.80;;;;;;;6.81;100.00;100120.00;1492983;95;21103;-70
2021/12/11 01:23:18;;;;;;;18.23;9.87;;;;;;;6.75;100.00;100120.59;1448170;99;21134;-70
2021/12/11 01:25:39;;;;;;;18.47;10.43;;;;;;;6.70;100.00;100135.46;1448168;99;21168;-70
2021/12/11 01:28:08;;;;;;;17.53;9.53;;;;;;;6.64;100.00;100139.07;1451299;99;21160;-70
2021/12/11 01:30:39;;;;;;;15.60;9.13;;;;;;;6.60;100.00;100134.11;1452764;99;21589;-71
2021/12/11 01:33:07;;;;;;;16.33;9.03;;;;;;;6.54;100.00;100116.73;1453719;96;21577;-71
2021/12/11 01:35:34;;;;;;;18.03;9.07;;;;;;;6.52;100.00;100128.63;1492983;96;21122;-72
2021/12/11 01:38:09;;;;;;;15.30;8.87;;;;;;;6.49;100.00;100111.44;1492901;96;21159;-70
2021/12/11 01:40:36;;;;;;;15.20;9.03;;;;;;;6.45;100.00;100110.88;1452122;97;21113;-69
2021/12/11 01:43:05;;;;;;;17.83;9.13;;;;;;;6.41;100.00;100110.32;1452147;99;21267;-70
2021/12/11 01:45:33;;;;;;;15.43;8.80;;;;;;;6.39;100.00;100103.38;1452039;99;21135;-70
2021/12/11 01:48:00;;;;;;;14.40;7.97;;;;;;;6.36;100.00;100110.40;1452049;99;21120;-70
2021/12/11 01:50:40;;;;;;;16.87;9.00;;;;;;;6.32;100.00;100110.31;1452065;97;21157;-69
2021/12/11 01:53:27;;;;;;;16.23;8.50;;;;;;;6.27;100.00;100114.78;1452139;99;21169;-70
2021/12/11 01:55:58;;;;;;;17.03;8.93;;;;;;;6.24;100.00;100118.58;1452134;97;21124;-70
2021/12/11 01:58:37;;;;;;;15.40;8.40;;;;;;;6.19;100.00;100127.55;1451798;99;21134;-71
2021/12/11 02:01:14;;;;;;;17.17;8.30;;;;;;;6.17;100.00;100118.80;1424745;101;21660;-70
2021/12/11 02:03:41;;;;;;;16.17;8.80;;;;;;;6.13;100.00;100124.60;1424826;101;21139;-71
2021/12/11 02:06:08;;;;;;;16.33;9.00;;;;;;;6.08;100.00;100121.82;1438029;99;21104;-70
2021/12/11 02:08:37;;;;;;;17.80;9.20;;;;;;;6.04;100.00;100123.09;1451815;98;21189;-72
2021/12/11 02:11:14;;;;;;;14.37;8.57;;;;;;;6.02;100.00;100120.19;1455601;98;21730;-69
2021/12/11 02:13:49;;;;;;;15.17;8.87;;;;;;;5.98;100.00;100131.70;1468361;97;21065;-70
2021/12/11 02:16:35;;;;;;;17.47;9.40;;;;;;;5.96;100.00;100122.94;1395366;103;21144;-69
2021/12/11 02:19:07;;;;;;;17.07;8.87;;;;;;;5.95;100.00;100121.70;1415891;100;21143;-69
2021/12/11 02:21:55;;;;;;;15.83;9.20;;;;;;;5.94;100.00;100128.08;1409408;102;21203;-69
2021/12/11 02:24:24;;;;;;;15.50;8.53;;;;;;;5.90;100.00;100123.48;1416042;101;21224;-70
2021/12/11 02:26:54;;;;;;;14.27;7.77;;;;;;;5.87;100.00;100129.95;1415985;101;21111;-71
2021/12/11 02:29:28;;;;;;;15.10;7.93;;;;;;;5.85;100.00;100129.75;1415780;101;21170;-71
2021/12/11 02:32:26;;;;;;;15.50;8.10;;;;;;;5.84;100.00;100132.94;1415720;100;21182;-70
2021/12/11 02:34:57;;;;;;;20.20;9.33;;;;;;;5.83;100.00;100133.07;1414873;100;21169;-71
2021/12/11 02:37:35;;;;;;;16.43;8.50;;;;;;;5.80;100.00;100128.81;1414099;101;21680;-71
2021/12/11 02:40:05;;;;;;;17.67;9.63;;;;;;;5.77;100.00;100125.56;1413539;101;21617;-69
2021/12/11 02:42:41;;;;;;;17.27;9.80;;;;;;;5.73;100.00;100130.35;1414080;101;21139;-71
2021/12/11 02:45:16;;;;;;;18.40;9.90;;;;;;;5.72;100.00;100138.06;1412347;101;21127;-71
2021/12/11 02:47:49;;;;;;;19.03;10.23;;;;;;;5.69;100.00;100132.97;1414157;101;21608;-70
2021/12/11 02:50:27;;;;;;;16.73;9.37;;;;;;;5.67;100.00;100144.33;1410230;100;21234;-69
2021/12/11 02:53:10;;;;;;;17.07;9.10;;;;;;;5.64;100.00;100130.68;1435394;100;21114;-70
2021/12/11 02:55:58;;;;;;;17.03;9.60;;;;;;;5.63;100.00;100137.05;1393465;103;21112;-71
2021/12/11 02:58:32;;;;;;;15.70;9.13;;;;;;;5.60;100.00;100127.92;1331440;104;21144;-69
2021/12/11 03:01:23;;;;;;;15.87;8.30;;;;;;;5.57;100.00;100136.23;1333188;105;21654;-69
2021/12/11 03:03:51;;;;;;;16.77;8.60;;;;;;;5.54;100.00;100139.19;1319499;108;21176;-70
2021/12/11 03:06:22;;;;;;;17.30;8.53;;;;;;;5.54;100.00;100124.44;1319421;109;21172;-69
2021/12/11 03:08:45;;;;;;;20.07;9.43;;;;;;;5.53;100.00;100136.66;1324672;107;21274;-69
2021/12/11 03:11:16;;;;;;;18.70;9.23;;;;;;;5.50;100.00;100127.05;1340814;107;21191;-70
2021/12/11 03:13:50;;;;;;;15.87;8.40;;;;;;;5.50;100.00;100139.95;1401137;101;21146;-69
2021/12/11 03:16:12;;;;;;;17.47;8.40;;;;;;;5.48;100.00;100129.02;1413597;101;21220;-69
2021/12/11 03:18:39;;;;;;;15.47;8.63;;;;;;;5.46;100.00;100124.28;1430848;100;21205;-70
2021/12/11 03:21:05;;;;;;;16.50;8.60;;;;;;;5.45;100.00;100130.15;1430908;100;21157;-69
2021/12/11 03:23:32;;;;;;;17.37;9.10;;;;;;;5.46;100.00;100133.67;1430904;99;21080;-70
2021/12/11 03:26:00;;;;;;;16.10;8.70;;;;;;;5.44;100.00;100135.14;1430643;100;21096;-70
2021/12/11 03:28:27;;;;;;;18.70;8.90;;;;;;;5.43;100.00;100139.30;1430845;100;21149;-70
2021/12/11 03:30:59;;;;;;;15.23;8.07;;;;;;;5.41;100.00;100144.80;1430811;99;21155;-70
2021/12/11 03:33:33;;;;;;;16.50;8.73;;;;;;;5.39;100.00;100139.22;1459789;98;21089;-71
2021/12/11 03:36:02;;;;;;;16.73;8.40;;;;;;;5.35;100.00;100144.01;1448247;98;21553;-70
2021/12/11 03:38:29;;;;;;;14.77;8.10;;;;;;;5.33;100.00;100148.16;1448732;99;21098;-70
2021/12/11 03:40:57;;;;;;;15.67;8.47;;;;;;;5.31;100.00;100150.60;1448458;99;21097;-69
2021/12/11 03:43:24;;;;;;;15.97;8.03;;;;;;;5.30;100.00;100149.76;1448584;99;21159;-69
2021/12/11 03:45:54;;;;;;;19.03;8.37;;;;;;;5.27;100.00;100127.23;1448692;99;21668;-71
2021/12/11 03:48:30;;;;;;;17.57;8.37;;;;;;;5.26;100.00;100136.78;1548949;93;21069;-70
2021/12/11 03:50:57;;;;;;;17.07;8.00;;;;;;;5.23;100.00;100136.53;1523329;94;21149;-70
2021/12/11 03:53:25;;;;;;;16.47;8.20;;;;;;;5.21;100.00;100141.69;1526505;93;21097;-70
2021/12/11 03:56:00;;;;;;;14.17;7.50;;;;;;;5.19;100.00;100146.31;1527787;94;21595;-70
2021/12/11 03:58:28;;;;;;;16.50;8.90;;;;;;;5.15;100.00;100139.03;1527985;93;21057;-70
2021/12/11 04:01:03;;;;;;;16.87;8.27;;;;;;;5.11;100.00;100139.78;1527929;94;21152;-70
2021/12/11 04:03:33;;;;;;;16.50;8.50;;;;;;;5.07;100.00;100134.84;1460420;97;21065;-68
2021/12/11 04:06:01;;;;;;;13.87;7.70;;;;;;;5.02;100.00;100129.88;1450055;98;21102;-70
2021/12/11 04:08:34;;;;;;;14.03;7.80;;;;;;;4.95;100.00;100133.56;1445875;99;21150;-70
2021/12/11 04:11:00;;;;;;;13.57;7.57;;;;;;;4.92;100.00;100133.86;1445037;99;21138;-70
2021/12/11 04:13:26;;;;;;;14.33;7.40;;;;;;;4.88;100.00;100128.37;1464015;97;21127;-70
2021/12/11 04:15:54;;;;;;;13.50;7.30;;;;;;;4.86;100.00;100124.98;1477575;97;21172;-70
2021/12/11 04:18:23;;;;;;;12.10;6.77;;;;;;;4.83;100.00;100138.64;1477321;97;21625;-70
2021/12/11 04:20:50;;;;;;;14.23;7.07;;;;;;;4.79;100.00;100138.55;1477527;97;21207;-69
2021/12/11 04:23:16;;;;;;;12.43;6.60;;;;;;;4.77;100.00;100135.66;1477476;96;21156;-70
2021/12/11 04:25:46;;;;;;;17.60;8.23;;;;;;;4.74;100.00;100138.09;1477385;97;21131;-69
2021/12/11 04:28:13;;;;;;;14.33;7.80;;;;;;;4.70;100.00;100137.52;1476902;97;21105;-68
2021/12/11 04:30:42;;;;;;;15.40;7.90;;;;;;;4.67;100.00;100139.11;1475940;97;21113;-70
2021/12/11 04:33:10;;;;;;;17.33;7.90;;;;;;;4.65;100.00;100117.46;1475767;97;21126;-69
2021/12/11 04:35:37;;;;;;;16.50;8.67;;;;;;;4.62;100.00;100137.33;1504203;93;21094;-70
2021/12/11 04:38:06;;;;;;;18.40;9.60;;;;;;;4.60;100.00;100127.72;1516682;94;21133;-70
2021/12/11 04:40:36;;;;;;;19.27;10.10;;;;;;;4.55;100.00;100132.11;1536298;89;21130;-70
2021/12/11 04:43:09;;;;;;;17.93;9.47;;;;;;;4.49;100.00;100120.09;1610176;89;21174;-69
2021/12/11 04:45:39;;;;;;;17.60;8.83;;;;;;;4.47;100.00;100118.54;1610114;89;21121;-69
2021/12/11 04:48:19;;;;;;;17.52;7.80;;;;;;;4.41;100.00;100121.25;1608448;89;21113;-69
2021/12/11 04:50:54;;;;;;;18.80;8.43;;;;;;;4.40;100.00;100136.11;1606139;89;21069;-69
2021/12/11 04:56:01;;;;;;;14.77;7.63;;;;;;;4.35;100.00;100143.17;1588930;90;21065;-70
2021/12/11 05:01:31;;;;;;;17.17;9.13;;;;;;;4.29;100.00;100143.20;1639854;86;21085;-71
2021/12/11 05:06:36;;;;;;;18.37;8.23;;;;;;;4.19;100.00;100143.10;1649506;86;21579;-70
2021/12/11 05:11:39;;;;;;;15.80;8.40;;;;;;;4.14;100.00;100141.79;1584907;90;21130;-70
2021/12/11 05:14:04;;;;;;;15.93;7.67;;;;;;;4.11;100.00;100139.39;1641587;86;21028;-70
2021/12/11 05:16:31;;;;;;;19.17;8.50;;;;;;;4.10;100.00;100135.00;1640274;87;21091;-70
2021/12/11 05:18:57;;;;;;;14.97;7.67;;;;;;;4.09;100.00;100137.30;1639304;87;21581;-70
2021/12/11 05:21:24;;;;;;;19.07;8.60;;;;;;;4.06;100.00;100137.58;1639114;87;21129;-69
2021/12/11 05:23:52;;;;;;;19.57;8.67;;;;;;;4.03;100.00;100134.66;1639205;86;21593;-71
2021/12/11 05:26:19;;;;;;;14.47;8.17;;;;;;;4.01;100.00;100130.42;1603979;88;21084;-71
2021/12/11 05:28:46;;;;;;;17.33;8.13;;;;;;;3.99;100.00;100136.73;1610061;88;21577;-71
2021/12/11 05:31:13;;;;;;;16.27;7.80;;;;;;;3.96;100.00;100139.66;1639415;86;21688;-70
2021/12/11 05:33:41;;;;;;;16.50;8.27;;;;;;;3.95;100.00;100144.66;1657838;86;21097;-70
2021/12/11 05:36:10;;;;;;;14.73;7.60;;;;;;;3.91;100.00;100151.25;1656460;86;21129;-71
2021/12/11 05:38:39;;;;;;;17.93;8.03;;;;;;;3.89;100.00;100152.33;1655840;87;21054;-72
2021/12/11 05:41:09;;;;;;;13.83;7.00;;;;;;;3.87;100.00;100155.13;1655870;86;21146;-71
2021/12/11 05:43:37;;;;;;;19.63;7.83;;;;;;;3.87;100.00;100138.23;1655594;87;21098;-71
2021/12/11 05:46:06;;;;;;;17.10;7.73;;;;;;;3.84;100.00;100167.91;1655976;85;21511;-70
2021/12/11 05:48:32;;;;;;;14.17;7.30;;;;;;;3.82;100.00;100164.02;1655909;86;21038;-69
2021/12/11 05:51:01;;;;;;;15.50;7.77;;;;;;;3.83;100.00;100156.86;1655949;86;21050;-70
2021/12/11 05:53:31;;;;;;;12.43;6.70;;;;;;;3.81;100.00;100160.99;1655866;87;21049;-71
2021/12/11 05:55:59;;;;;;;12.83;6.37;;;;;;;3.79;100.00;100163.79;1655838;87;21050;-69
2021/12/11 06:01:11;;;;;;;14.93;7.13;;;;;;;3.78;100.00;100166.58;1655883;87;21102;-71
2021/12/11 06:03:38;;;;;;;17.00;7.30;;;;;;;3.76;100.00;100164.03;1655807;87;21516;-72
2021/12/11 06:06:06;;;;;;;14.37;7.13;;;;;;;3.74;100.00;100159.30;1633767;88;21092;-69
2021/12/11 06:08:32;;;;;;;13.83;6.27;;;;;;;3.74;100.00;100159.30;1673967;85;21464;-70
2021/12/11 06:11:01;;;;;;;19.03;7.80;;;;;;;3.74;100.00;100170.48;1671142;86;21046;-70
2021/12/11 06:13:29;;;;;;;19.43;8.77;;;;;;;3.70;100.00;100179.25;1671586;85;21057;-71
2021/12/11 06:15:58;;;;;;;12.57;6.53;;;;;;;3.70;100.00;100182.39;1672271;85;21061;-70
2021/12/11 06:18:25;;;;;;;17.37;7.17;;;;;;;3.70;100.00;100207.33;1672515;85;21014;-69
2021/12/11 06:20:52;;;;;;;17.07;7.13;;;;;;;3.72;100.00;100217.88;1672144;86;21037;-70
2021/12/11 06:23:19;;;;;;;17.43;7.63;;;;;;;3.72;100.00;100220.09;1672272;85;21022;-69
2021/12/11 06:25:46;;;;;;;20.03;7.57;;;;;;;3.72;100.00;100208.52;1672324;85;21109;-69
2021/12/11 06:28:13;;;;;;;16.63;6.63;;;;;;;3.71;100.00;100202.33;1672189;86;21073;-68
2021/12/11 06:30:40;;;;;;;16.07;7.83;;;;;;;3.69;100.00;100216.81;1672441;85;21053;-71
2021/12/11 06:33:07;;;;;;;13.77;6.90;;;;;;;3.69;100.00;100226.17;1672737;85;21045;-69
2021/12/11 06:35:48;;;;;;;19.20;8.10;;;;;;;3.69;100.00;100208.78;1672692;85;21554;-70
2021/12/11 06:38:18;;;;;;;18.20;7.27;;;;;;;3.67;100.00;100216.93;1672385;86;21613;-70
2021/12/11 06:40:45;;;;;;;17.40;6.93;;;;;;;3.69;100.00;100224.34;1672476;85;21029;-70
2021/12/11 06:43:11;;;;;;;16.20;6.70;;;;;;;3.69;100.00;100214.98;1672513;85;21088;-70
2021/12/11 06:45:39;;;;;;;15.93;7.60;;;;;;;3.69;100.00;100220.82;1672341;85;21022;-70
2021/12/11 06:48:06;;;;;;;21.23;9.10;;;;;;;3.68;100.00;100219.11;1672210;86;21109;-71
2021/12/11 06:50:33;;;;;;;16.07;7.00;;;;;;;3.68;100.00;100221.28;1672156;86;21056;-72
2021/12/11 06:53:03;;;;;;;16.40;7.13;;;;;;;3.68;100.00;100213.27;1672079;86;21566;-70
2021/12/11 06:55:30;;;;;;;14.67;6.90;;;;;;;3.70;100.00;100213.14;1672282;86;21057;-70
2021/12/11 06:57:57;;;;;;;13.57;6.67;;;;;;;3.70;100.00;100214.02;1672446;85;21037;-72
2021/12/11 07:00:26;;;;;;;14.03;6.90;;;;;;;3.69;100.00;100220.82;1672483;85;21029;-71
2021/12/11 07:02:52;;;;;;;16.40;7.80;;;;;;;3.69;100.00;100216.31;1671541;86;21102;-69
2021/12/11 07:05:19;;;;;;;21.60;8.03;;;;;;;3.69;100.00;100214.14;1671736;85;21118;-70
2021/12/11 07:07:46;;;;;;;13.33;6.70;;;;;;;3.69;100.00;100221.66;1679519;85;21070;-70
2021/12/11 07:10:19;;;;;;;17.40;7.40;;;;;;;3.69;100.00;100213.64;1686486;85;21080;-72
2021/12/11 07:12:48;;;;;;;19.67;8.10;;;;;;;3.72;100.00;100217.41;1682251;85;21058;-69
2021/12/11 07:15:14;;;;;;;16.30;8.20;;;;;;;3.75;100.00;100222.52;1672741;85;21057;-70
2021/12/11 07:17:41;;;;;;;22.60;9.77;;;;;;;3.83;100.00;100211.70;1639598;87;21045;-70
2021/12/11 07:20:10;;;;;;;19.53;8.73;;;;;;;3.90;100.00;100211.06;1639156;87;21111;-71
2021/12/11 07:22:42;;;;;;;20.47;8.97;;;;;;;3.99;100.00;100213.48;1639556;87;21555;-71
2021/12/11 07:25:27;;;;;;;20.73;9.43;;;;;;;4.05;100.00;100214.31;1639634;87;21055;-72
2021/12/11 07:27:55;;;;;;;18.33;7.87;;;;;;;4.09;100.00;100211.77;1638977;87;21583;-69
2021/12/11 07:30:23;;;;;;;19.90;8.40;;;;;;;4.09;100.00;100216.25;1639268;87;21742;-70
2021/12/11 07:32:54;;;;;;;16.90;7.83;;;;;;;4.10;100.00;100211.27;1672253;85;21017;-70
2021/12/11 07:35:22;;;;;;;19.23;7.87;;;;;;;4.10;100.00;100218.80;1672255;85;21108;-69
2021/12/11 07:37:50;;;;;;;19.17;10.53;;;;;;;4.12;100.00;100218.19;1672635;85;21089;-71
2021/12/11 07:40:21;;;;;;;16.83;8.53;;;;;;;4.18;100.00;100221.72;1671960;85;21057;-70
2021/12/11 07:42:48;;;;;;;18.43;7.37;;;;;;;4.32;100.00;100227.75;1672366;85;21558;-70
2021/12/11 07:45:15;;;;;;;13.80;6.43;;;;;;;4.47;100.00;100221.63;1672475;86;21077;-71
2021/12/11 07:47:44;;;;;;;16.50;7.57;;;;;;;4.58;100.00;100226.09;1672514;85;21068;-69
2021/12/11 07:50:11;;;;;;;19.83;7.30;;;;;;;4.63;100.00;100223.38;1672382;85;21076;-71
2021/12/11 07:52:39;;;;;;;16.47;7.83;;;;;;;4.70;100.00;100215.69;1671760;85;21061;-72
2021/12/11 07:55:06;;;;;;;19.27;7.80;;;;;;;4.74;100.00;100231.36;1671808;86;21017;-70
2021/12/11 07:57:33;;;;;;;20.47;8.03;;;;;;;4.79;100.00;100236.34;1672622;85;21072;-71
2021/12/11 08:00:00;;;;;;;19.57;8.43;;;;;;;4.82;100.00;100227.22;1672135;85;20998;-71
2021/12/11 08:02:26;;;;;;;16.73;9.20;;;;;;;4.79;100.00;100240.36;1672149;86;20990;-70
2021/12/11 08:04:53;;;;;;;17.53;8.13;;;;;;;4.78;100.00;100241.83;1671585;86;21077;-71
2021/12/11 08:07:20;;;;;;;19.43;7.67;;;;;;;4.76;100.00;100243.29;1667198;86;21528;-71
2021/12/11 08:09:46;;;;;;;17.23;7.93;;;;;;;4.74;100.00;100241.23;1657265;85;21091;-70
2021/12/11 08:12:15;;;;;;;17.93;7.70;;;;;;;4.72;100.00;100223.11;1657106;85;21064;-71
2021/12/11 08:14:42;;;;;;;15.87;7.17;;;;;;;4.71;100.00;100206.19;1663659;86;21033;-70
2021/12/11 08:17:10;;;;;;;13.20;6.53;;;;;;;4.71;100.00;100183.89;1664501;86;21523;-71
2021/12/11 08:19:37;;;;;;;15.23;6.40;;;;;;;4.68;100.00;100193.55;1664467;86;21104;-70
2021/12/11 08:22:08;;;;;;;24.87;11.97;;;;;;;4.65;100.00;100197.81;1664727;86;21076;-71
2021/12/11 08:24:37;;;;;;;23.87;8.20;;;;;;;4.62;100.00;100215.47;1664652;86;21048;-71
2021/12/11 08:27:10;;;;;;;20.17;7.90;;;;;;;4.62;100.00;100229.73;1665180;86;21502;-71
2021/12/11 08:29:39;;;;;;;24.30;8.87;;;;;;;4.66;100.00;100229.83;1664708;86;21129;-69
2021/12/11 08:32:07;;;;;;;21.13;8.33;;;;;;;4.70;100.00;100230.42;1664894;86;21102;-69
2021/12/11 08:34:34;;;;;;;17.30;6.97;;;;;;;4.74;100.00;100229.17;1664748;86;21101;-69
2021/12/11 08:37:02;;;;;;;29.43;9.27;;;;;;;4.75;100.00;100209.46;1662350;86;21069;-69
2021/12/11 08:39:29;;;;;;;16.37;7.03;;;;;;;4.74;100.00;100202.39;1662048;86;21093;-69
2021/12/11 08:41:57;;;;;;;17.47;6.87;;;;;;;4.68;100.00;100193.05;1640070;86;21527;-69
2021/12/11 08:44:24;;;;;;;13.70;6.97;;;;;;;4.67;100.00;100179.78;1662148;86;21041;-70
2021/12/11 08:46:56;;;;;;;19.10;8.00;;;;;;;4.64;100.00;100180.91;1662387;86;20990;-70
2021/12/11 08:49:27;;;;;;;13.57;6.43;;;;;;;4.63;100.00;100219.37;1661050;86;21054;-69
2021/12/11 08:52:20;;;;;;;21.03;8.93;;;;;;;4.63;100.00;100208.66;1662078;86;21077;-68
2021/12/11 08:54:47;;;;;;;24.57;10.38;;;;;;;4.63;100.00;100197.94;1662306;86;21073;-70
2021/12/11 08:57:17;;;;;;;23.73;9.43;;;;;;;4.65;100.00;100208.53;1631582;88;21050;-71
2021/12/11 08:59:48;;;;;;;18.67;7.57;;;;;;;4.68;100.00;100213.14;1662017;86;21114;-72
2021/12/11 09:02:24;;;;;;;23.63;12.57;;;;;;;4.77;100.00;100210.17;1662100;86;20994;-70
2021/12/11 09:04:56;;;;;;;20.27;8.90;;;;;;;4.85;100.00;100210.86;1508452;94;21112;-71
2021/12/11 09:07:30;;;;;;;18.77;6.43;;;;;;;4.98;100.00;100209.34;1482711;97;21191;-71
2021/12/11 09:10:09;;;;;;;18.63;7.17;;;;;;;5.06;100.00;100203.66;1438090;100;21134;-71
2021/12/11 09:13:00;;;;;;;16.00;7.27;;;;;;;5.12;100.00;100186.23;1400574;101;21593;-70
2021/12/11 09:15:32;;;;;;;13.30;6.90;;;;;;;5.18;100.00;100185.68;1396766;102;21134;-71
2021/12/11 09:18:10;;;;;;;17.23;8.13;;;;;;;5.22;100.00;100189.78;1401052;102;21098;-71
2021/12/11 09:20:43;;;;;;;21.00;7.93;;;;;;;5.23;100.00;100192.84;1400528;102;21636;-70
2021/12/11 09:23:25;;;;;;;18.98;7.22;;;;;;;5.28;100.00;100201.84;1358857;106;21263;-70
2021/12/11 09:26:24;;;;;;;16.97;8.00;;;;;;;5.31;100.00;100212.27;1361547;104;21743;-70
2021/12/11 09:28:58;;;;;;;20.50;8.07;;;;;;;5.31;100.00;100214.95;1331210;107;21154;-71
2021/12/11 09:31:46;;;;;;;22.93;11.70;;;;;;;5.31;100.00;100225.21;1287643;111;21440;-71
2021/12/11 09:34:19;;;;;;;22.30;9.47;;;;;;;5.28;100.00;100235.34;1278347;111;21714;-70
2021/12/11 09:36:50;;;;;;;21.37;9.80;;;;;;;5.26;100.00;100233.30;1285380;111;21304;-69
2021/12/11 09:39:25;;;;;;;20.50;8.80;;;;;;;5.25;100.00;100221.70;1253619;114;21230;-70
2021/12/11 09:41:51;;;;;;;16.07;7.70;;;;;;;5.23;100.00;100224.17;1260180;114;21195;-69
2021/12/11 09:44:23;;;;;;;23.83;8.53;;;;;;;5.20;100.00;100235.98;1255653;114;21255;-69
2021/12/11 09:47:02;;;;;;;19.30;8.00;;;;;;;5.17;100.00;100238.08;1250525;114;21199;-70
2021/12/11 09:49:35;;;;;;;17.77;7.47;;;;;;;5.12;100.00;100247.37;1249872;114;21728;-70
2021/12/11 09:52:15;;;;;;;21.27;8.80;;;;;;;5.08;100.00;100251.78;1249150;114;21737;-69
2021/12/11 09:54:35;;;;;;;20.40;9.23;;;;;;;5.04;100.00;100243.65;1246764;114;21699;-70
2021/12/11 09:57:08;;;;;;;20.30;8.20;;;;;;;5.00;100.00;100241.72;1241002;114;21719;-70
2021/12/11 09:59:36;;;;;;;20.17;7.43;;;;;;;4.99;100.00;100241.84;1261679;112;21177;-74
2021/12/11 10:02:08;;;;;;;17.37;7.53;;;;;;;4.97;100.00;100246.49;1284928;110;22517;-72
2021/12/11 10:04:40;;;;;;;22.77;9.00;;;;;;;4.97;100.00;100241.97;1296847;109;21248;-70
2021/12/11 10:09:46;;;;;;;23.27;9.90;;;;;;;5.03;100.00;100244.62;1361741;104;21135;-74
2021/12/11 10:12:17;;;;;;;18.73;8.40;;;;;;;5.02;100.00;100244.27;1365030;103;21183;-72
2021/12/11 10:14:58;;;;;;;22.27;8.47;;;;;;;5.00;100.00;100244.90;1357184;106;21185;-74
2021/12/11 10:17:37;;;;;;;20.53;8.80;;;;;;;4.97;100.00;100229.07;1357280;104;21140;-74
2021/12/11 10:20:07;;;;;;;18.00;7.50;;;;;;;4.94;100.00;100230.20;1381556;101;21650;-70
2021/12/11 10:22:36;;;;;;;20.47;7.53;;;;;;;4.97;100.00;100233.09;1410022;99;21191;-70
2021/12/11 10:25:08;;;;;;;23.00;9.60;;;;;;;5.00;100.00;100244.40;1433233;99;21681;-73
2021/12/11 10:27:35;;;;;;;24.10;7.73;;;;;;;5.06;100.00;100243.02;1434846;98;21114;-73
2021/12/11 10:30:06;;;;;;;20.33;8.67;;;;;;;5.06;100.00;100243.02;1464745;97;21118;-71
2021/12/11 10:32:33;;;;;;;19.00;7.37;;;;;;;5.03;100.00;100240.59;1473499;96;21110;-70
2021/12/11 10:35:08;;;;;;;19.40;6.60;;;;;;;5.02;100.00;100242.94;1482168;95;21543;-69
2021/12/11 10:37:36;;;;;;;18.87;7.20;;;;;;;4.99;100.00;100253.41;1485671;94;21668;-70
2021/12/11 10:40:21;;;;;;;18.10;7.33;;;;;;;5.00;100.00;100255.62;1533839;93;21075;-71
2021/12/11 10:42:53;;;;;;;20.77;8.87;;;;;;;5.00;100.00;100250.27;1536171;92;21102;-73
2021/12/11 10:45:20;;;;;;;24.03;10.00;;;;;;;5.03;100.00;100259.36;1550973;92;21051;-72
2021/12/11 10:47:51;;;;;;;29.67;13.00;;;;;;;5.04;100.00;100255.70;1529608;92;21107;-71
2021/12/11 10:50:32;;;;;;;38.17;16.90;;;;;;;5.06;100.00;100263.13;1557079;91;21065;-71
2021/12/11 10:52:59;;;;;;;22.70;10.67;;;;;;;5.04;100.00;100270.45;1557267;91;21154;-72
2021/12/11 10:55:29;;;;;;;24.97;10.23;;;;;;;4.99;100.00;100284.23;1552784;92;21099;-71
2021/12/11 10:57:58;;;;;;;25.77;12.23;;;;;;;4.94;100.00;100284.63;1556725;91;21070;-70
2021/12/11 11:00:36;;;;;;;21.43;9.13;;;;;;;4.92;100.00;100291.95;1558421;92;21131;-70
2021/12/11 11:03:03;;;;;;;17.60;8.23;;;;;;;4.93;100.00;100298.16;1533251;91;21053;-71
2021/12/11 11:05:30;;;;;;;21.40;9.13;;;;;;;4.93;100.00;100298.16;1532712;92;21425;-71
2021/12/11 11:07:57;;;;;;;19.90;8.53;;;;;;;4.89;100.00;100301.58;1537029;92;21065;-68
2021/12/11 11:10:29;;;;;;;18.20;7.90;;;;;;;4.84;100.00;100300.27;1526483;94;21156;-68
2021/12/11 11:12:57;;;;;;;15.60;7.33;;;;;;;4.81;100.00;100309.39;1512165;93;21134;-74
2021/12/11 11:15:24;;;;;;;17.50;7.77;;;;;;;4.80;100.00;100309.52;1530157;92;21172;-70
2021/12/11 11:17:52;;;;;;;22.03;9.60;;;;;;;4.77;100.00;100313.32;1609621;87;21042;-70
2021/12/11 11:20:25;;;;;;;26.53;14.57;;;;;;;4.76;100.00;100307.59;1609501;87;21636;-72
2021/12/11 11:22:52;;;;;;;23.27;9.93;;;;;;;4.75;100.00;100313.44;1587008;89;21206;-71
2021/12/11 11:25:24;;;;;;;24.77;9.80;;;;;;;4.77;100.00;100314.66;1585568;89;21067;-70
2021/12/11 11:27:57;;;;;;;17.23;8.40;;;;;;;4.77;100.00;100320.52;1522732;92;21603;-71
2021/12/11 11:30:28;;;;;;;20.97;9.60;;;;;;;4.73;100.00;100324.78;1524291;92;21080;-70
2021/12/11 11:32:56;;;;;;;25.53;10.90;;;;;;;4.68;100.00;100325.64;1551554;90;21105;-72
2021/12/11 11:35:25;;;;;;;22.53;9.97;;;;;;;4.67;100.00;100329.78;1548013;91;21046;-71
2021/12/11 11:37:56;;;;;;;25.93;13.47;;;;;;;4.65;100.00;100329.91;1552931;90;21162;-72
2021/12/11 11:40:30;;;;;;;28.70;14.60;;;;;;;4.65;100.00;100327.22;1554977;91;21097;-73
2021/12/11 11:42:57;;;;;;;27.63;12.27;;;;;;;4.67;100.00;100334.64;1549962;92;21085;-72
2021/12/11 11:45:25;;;;;;;28.27;14.30;;;;;;;4.68;100.00;100332.84;1554883;91;21151;-69
2021/12/11 11:47:54;;;;;;;24.93;12.87;;;;;;;4.68;100.00;100335.52;1550549;90;21065;-69